Time;durP1;ratioP1;P1;durP2;ratioP2;P2;SDS_P1;SDS_P2;PMS_P1;PMS_P2;Temp;Humidity;BMP_temperature;BMP_pressure;BME280_temperature;BME280_humidity;BME280_pressure;Samples;Min_cycle;Max_cycle;Signal;HPM_P1;HPM_P2
2022/10/13 00:00:16;;;;;;;14.03;9.97;;;11.40;99.90;;;;;;5028610;28;20194;-37
2022/10/13 00:02:41;;;;;;;16.27;10.27;;;11.50;99.90;;;;;;5028585;28;20222;-37
2022/10/13 00:05:07;;;;;;;14.40;9.53;;;11.50;99.90;;;;;;5029351;28;20202;-37
2022/10/13 00:07:33;;;;;;;13.87;9.30;;;11.50;99.90;;;;;;5028143;28;20265;-37
2022/10/13 00:09:59;;;;;;;13.20;9.20;;;11.60;99.90;;;;;;5029526;28;20867;-37
2022/10/13 00:12:24;;;;;;;12.70;9.93;;;11.60;99.90;;;;;;5028092;28;20429;-37
2022/10/13 00:14:50;;;;;;;14.50;9.17;;;11.60;99.90;;;;;;5028924;28;20767;-38
2022/10/13 00:17:16;;;;;;;13.23;9.70;;;11.60;99.90;;;;;;5029203;28;20230;-39
2022/10/13 00:19:42;;;;;;;15.57;10.17;;;11.60;99.90;;;;;;5028992;28;20567;-37
2022/10/13 00:22:08;;;;;;;10.77;9.30;;;11.60;99.90;;;;;;5032120;28;20574;-37
2022/10/13 00:24:33;;;;;;;10.93;9.77;;;11.60;99.90;;;;;;5028303;28;20194;-37
2022/10/13 00:26:59;;;;;;;12.63;9.93;;;11.60;99.90;;;;;;5029485;28;20201;-37
2022/10/13 00:29:24;;;;;;;15.20;9.70;;;11.60;99.90;;;;;;5029496;28;20803;-38
2022/10/13 00:31:50;;;;;;;13.23;10.03;;;11.50;99.90;;;;;;5029013;28;20187;-37
2022/10/13 00:34:16;;;;;;;13.00;10.67;;;11.60;99.90;;;;;;5028104;28;20190;-37
2022/10/13 00:36:41;;;;;;;12.07;9.10;;;11.60;99.90;;;;;;5028971;28;20198;-37
2022/10/13 00:39:07;;;;;;;12.03;9.63;;;11.60;99.90;;;;;;5029368;28;20197;-38
2022/10/13 00:41:33;;;;;;;11.73;10.27;;;11.60;99.90;;;;;;5028823;28;20200;-37
2022/10/13 00:44:26;;;;;;;16.77;9.70;;;11.50;99.90;;;;;;5028420;28;20274;-37
2022/10/13 00:46:51;;;;;;;12.90;9.27;;;11.60;99.90;;;;;;5028466;28;20226;-37
2022/10/13 00:49:17;;;;;;;17.33;9.87;;;11.60;99.90;;;;;;5029025;28;20417;-37
2022/10/13 00:51:46;;;;;;;11.30;9.10;;;11.70;99.90;;;;;;5028556;28;20272;-38
2022/10/13 00:54:16;;;;;;;16.63;11.13;;;11.70;99.90;;;;;;5028511;28;20435;-38
2022/10/13 00:56:42;;;;;;;13.83;8.90;;;11.60;99.90;;;;;;5028390;28;20437;-37
2022/10/13 00:59:38;;;;;;;11.30;9.13;;;11.60;99.90;;;;;;5029054;28;20444;-37
2022/10/13 01:02:04;;;;;;;10.60;8.47;;;11.60;99.90;;;;;;5028035;28;20796;-37
2022/10/13 01:04:36;;;;;;;9.93;8.53;;;11.60;99.90;;;;;;5027694;28;20532;-38
2022/10/13 01:07:02;;;;;;;12.63;9.47;;;11.70;99.90;;;;;;5028282;28;20461;-37
2022/10/13 01:09:36;;;;;;;13.80;9.73;;;11.70;99.90;;;;;;5028478;28;20421;-37
2022/10/13 01:12:16;;;;;;;15.27;9.70;;;11.70;99.90;;;;;;5028302;28;20512;-37
2022/10/13 01:14:54;;;;;;;13.73;9.67;;;11.70;99.90;;;;;;5027969;28;20444;-37
2022/10/13 01:17:44;;;;;;;11.67;8.53;;;11.70;99.90;;;;;;5027950;28;20455;-38
2022/10/13 01:20:31;;;;;;;13.23;9.73;;;11.70;99.90;;;;;;5033273;28;20447;-37
2022/10/13 01:23:18;;;;;;;12.13;9.20;;;11.70;99.90;;;;;;5027514;28;20461;-37
2022/10/13 01:26:02;;;;;;;16.80;9.47;;;11.70;99.90;;;;;;5028656;28;20420;-37
2022/10/13 01:28:31;;;;;;;14.17;9.60;;;11.70;99.90;;;;;;5030975;28;20421;-37
2022/10/13 01:31:23;;;;;;;12.47;8.83;;;11.70;99.90;;;;;;5034773;28;20942;-37
2022/10/13 01:34:17;;;;;;;11.40;8.80;;;11.70;99.90;;;;;;5033420;28;20429;-37
2022/10/13 01:36:53;;;;;;;11.77;8.90;;;11.70;99.90;;;;;;5034508;28;20433;-37
2022/10/13 01:39:38;;;;;;;17.50;9.17;;;11.70;99.90;;;;;;5035068;28;20534;-37
2022/10/13 01:42:12;;;;;;;11.43;9.10;;;11.70;99.90;;;;;;5034588;28;20417;-37
2022/10/13 01:44:42;;;;;;;12.50;8.37;;;11.80;99.90;;;;;;5033999;28;20424;-37
2022/10/13 01:47:10;;;;;;;12.27;9.27;;;11.80;99.90;;;;;;5034402;28;20420;-37
2022/10/13 01:49:37;;;;;;;12.37;8.50;;;11.80;99.90;;;;;;5034670;28;20482;-38
2022/10/13 01:52:12;;;;;;;12.00;9.10;;;11.80;99.90;;;;;;5034489;28;20440;-37
2022/10/13 01:54:37;;;;;;;10.70;8.30;;;11.80;99.90;;;;;;5032945;28;20694;-37
2022/10/13 01:57:03;;;;;;;13.10;8.33;;;11.80;99.90;;;;;;5035068;28;20431;-38
2022/10/13 01:59:32;;;;;;;14.60;8.60;;;11.80;99.90;;;;;;5034476;28;20552;-37
2022/10/13 02:02:06;;;;;;;10.47;8.20;;;11.90;99.90;;;;;;5034479;28;20214;-37
2022/10/13 02:04:48;;;;;;;12.90;10.13;;;11.90;99.90;;;;;;5033770;28;20857;-37
2022/10/13 02:07:27;;;;;;;12.63;8.80;;;11.90;99.90;;;;;;5034796;28;20421;-37
2022/10/13 02:09:52;;;;;;;9.60;8.00;;;11.90;99.90;;;;;;5034836;28;20427;-38
2022/10/13 02:12:30;;;;;;;15.87;9.90;;;12.00;99.90;;;;;;5034123;28;20785;-37
2022/10/13 02:14:58;;;;;;;14.23;8.87;;;11.90;99.90;;;;;;5034103;28;20189;-37
2022/10/13 02:17:26;;;;;;;12.10;8.47;;;11.90;99.90;;;;;;5034411;28;20421;-37
2022/10/13 02:19:52;;;;;;;11.77;7.63;;;11.90;99.90;;;;;;5037192;28;20512;-37
2022/10/13 02:22:21;;;;;;;10.50;7.90;;;11.90;99.90;;;;;;5037566;28;20461;-37
2022/10/13 02:24:46;;;;;;;11.43;8.13;;;11.90;99.90;;;;;;5033927;28;20429;-37
2022/10/13 02:27:13;;;;;;;12.20;9.10;;;12.00;99.90;;;;;;5034249;28;20444;-37
2022/10/13 02:29:50;;;;;;;10.77;8.40;;;12.00;99.90;;;;;;5034464;28;20189;-37
2022/10/13 02:32:15;;;;;;;9.97;8.13;;;12.10;99.90;;;;;;5034418;28;20429;-37
2022/10/13 02:34:41;;;;;;;10.83;8.93;;;12.00;99.90;;;;;;5033803;28;21011;-37
2022/10/13 02:37:07;;;;;;;11.60;7.73;;;12.10;99.90;;;;;;5033751;28;20297;-37
2022/10/13 02:39:32;;;;;;;12.67;9.10;;;12.10;99.90;;;;;;5031126;28;20179;-37
2022/10/13 02:41:58;;;;;;;11.03;8.40;;;12.10;99.90;;;;;;5030684;28;20198;-37
2022/10/13 02:44:24;;;;;;;8.50;7.47;;;12.10;99.90;;;;;;5030642;28;20244;-37
2022/10/13 02:46:49;;;;;;;13.23;9.17;;;12.10;99.90;;;;;;5031223;28;20192;-37
2022/10/13 02:49:15;;;;;;;10.53;8.23;;;12.10;99.90;;;;;;5030004;28;20282;-37
2022/10/13 02:51:41;;;;;;;11.53;8.53;;;12.10;99.90;;;;;;5030205;28;20285;-38
2022/10/13 02:54:07;;;;;;;12.13;8.80;;;12.10;99.90;;;;;;5030566;28;20241;-37
2022/10/13 02:56:32;;;;;;;11.00;7.63;;;12.20;99.90;;;;;;5028742;28;20240;-37
2022/10/13 02:58:58;;;;;;;12.00;7.63;;;12.20;99.90;;;;;;5031081;28;20932;-37
2022/10/13 03:01:23;;;;;;;13.60;9.13;;;12.10;99.90;;;;;;5030926;28;20340;-37
2022/10/13 03:03:49;;;;;;;10.23;8.03;;;12.10;99.90;;;;;;5029840;28;20273;-37
2022/10/13 03:06:15;;;;;;;13.30;8.30;;;12.20;99.90;;;;;;5030442;28;20753;-37
2022/10/13 03:08:40;;;;;;;10.10;7.53;;;12.20;99.90;;;;;;5030831;28;20201;-37
2022/10/13 03:11:06;;;;;;;13.77;9.70;;;12.20;99.90;;;;;;5030571;28;20197;-37
2022/10/13 03:13:32;;;;;;;11.83;8.37;;;12.20;99.90;;;;;;5029951;28;20194;-37
2022/10/13 03:15:57;;;;;;;12.93;7.70;;;12.20;99.90;;;;;;5030563;28;20483;-38
2022/10/13 03:18:23;;;;;;;10.57;8.23;;;12.20;99.90;;;;;;5029118;28;20194;-37
2022/10/13 03:21:04;;;;;;;15.43;12.10;;;12.20;99.90;;;;;;5034855;28;20554;-38
2022/10/13 03:23:30;;;;;;;13.97;8.20;;;12.30;99.90;;;;;;5029526;28;20629;-36
2022/10/13 03:25:56;;;;;;;9.47;7.97;;;12.30;99.90;;;;;;5030538;28;20436;-35
2022/10/13 03:28:21;;;;;;;11.47;8.07;;;12.30;99.90;;;;;;5030442;28;20426;-37
2022/10/13 03:30:47;;;;;;;12.43;8.50;;;12.20;99.90;;;;;;5030091;28;20190;-37
2022/10/13 03:33:13;;;;;;;13.37;8.93;;;12.30;99.90;;;;;;5028208;28;20236;-37
2022/10/13 03:35:39;;;;;;;10.57;8.80;;;12.30;99.90;;;;;;5029854;28;20429;-37
2022/10/13 03:38:04;;;;;;;13.80;8.17;;;12.30;99.90;;;;;;5030341;28;20226;-37
2022/10/13 03:40:30;;;;;;;14.00;8.80;;;12.30;99.90;;;;;;5030157;28;20205;-37
2022/10/13 03:42:56;;;;;;;17.07;10.47;;;12.30;99.90;;;;;;5029192;28;20271;-38
2022/10/13 03:45:21;;;;;;;11.97;7.80;;;12.30;99.90;;;;;;5029970;28;20676;-38
2022/10/13 03:47:47;;;;;;;9.53;7.53;;;12.40;99.90;;;;;;5029790;28;20191;-37
2022/10/13 03:50:13;;;;;;;12.93;8.90;;;12.40;99.90;;;;;;5029570;28;20194;-37
2022/10/13 03:52:38;;;;;;;13.93;8.87;;;12.40;99.90;;;;;;5029241;28;20182;-38
2022/10/13 03:55:04;;;;;;;13.30;9.90;;;12.40;99.90;;;;;;5027390;28;20183;-37
2022/10/13 03:57:30;;;;;;;10.80;8.30;;;12.40;99.90;;;;;;5029444;28;20673;-37
2022/10/13 03:59:56;;;;;;;13.67;8.10;;;12.40;99.90;;;;;;5029839;28;20432;-38
2022/10/13 04:02:22;;;;;;;10.90;8.80;;;12.40;99.90;;;;;;5029159;28;20217;-38
2022/10/13 04:04:49;;;;;;;12.10;7.97;;;12.40;99.90;;;;;;5028835;28;20445;-37
2022/10/13 04:07:15;;;;;;;14.37;9.20;;;12.40;99.90;;;;;;5029276;28;20421;-37
2022/10/13 04:09:40;;;;;;;17.17;9.10;;;12.50;99.90;;;;;;5029727;28;20766;-37
2022/10/13 04:12:06;;;;;;;12.80;8.87;;;12.40;99.90;;;;;;5029388;28;20195;-37
2022/10/13 04:14:32;;;;;;;13.37;9.33;;;12.40;99.90;;;;;;5028851;28;20716;-37
2022/10/13 04:16:58;;;;;;;10.07;8.70;;;12.40;99.90;;;;;;5029093;28;20429;-38
2022/10/13 04:19:24;;;;;;;9.70;7.83;;;12.40;99.90;;;;;;5029248;28;20194;-37
2022/10/13 04:21:50;;;;;;;10.07;8.30;;;12.40;99.90;;;;;;5034324;28;20193;-37
2022/10/13 04:24:17;;;;;;;13.00;8.47;;;12.40;99.90;;;;;;5028864;28;20452;-37
2022/10/13 04:26:45;;;;;;;10.70;8.40;;;12.40;99.90;;;;;;5029153;28;20229;-37
2022/10/13 04:29:11;;;;;;;15.00;8.90;;;12.40;99.90;;;;;;5029155;28;20433;-38
2022/10/13 04:31:38;;;;;;;11.67;8.23;;;12.40;99.90;;;;;;5028892;28;20413;-37
2022/10/13 04:34:03;;;;;;;12.20;9.03;;;12.40;99.90;;;;;;5028225;28;20429;-37
2022/10/13 04:36:29;;;;;;;12.33;7.97;;;12.40;99.90;;;;;;5029301;28;20821;-37
2022/10/13 04:38:55;;;;;;;11.83;8.73;;;12.40;99.90;;;;;;5027747;28;20182;-37
2022/10/13 04:41:22;;;;;;;12.20;9.10;;;12.40;99.90;;;;;;5028914;28;20451;-37
2022/10/13 04:43:51;;;;;;;13.47;10.07;;;12.40;99.90;;;;;;5024762;28;20214;-37
2022/10/13 04:46:20;;;;;;;11.87;8.53;;;12.40;99.90;;;;;;5028238;28;20456;-37
2022/10/13 04:48:46;;;;;;;11.37;8.40;;;12.40;99.90;;;;;;5028620;28;20816;-38
2022/10/13 04:51:14;;;;;;;9.63;8.17;;;12.40;99.90;;;;;;5028817;28;20483;-37
2022/10/13 04:53:40;;;;;;;10.60;8.00;;;12.40;99.90;;;;;;5027522;28;20182;-37
2022/10/13 04:56:15;;;;;;;13.03;8.30;;;12.40;99.90;;;;;;5027575;28;20433;-38
2022/10/13 04:58:42;;;;;;;10.30;8.10;;;12.40;99.90;;;;;;5028301;28;20432;-38
2022/10/13 05:01:12;;;;;;;11.87;9.57;;;12.40;99.90;;;;;;5028909;28;20479;-37
2022/10/13 05:03:38;;;;;;;15.83;8.70;;;12.40;99.90;;;;;;5018930;28;20464;-38
2022/10/13 05:06:04;;;;;;;11.90;8.80;;;12.40;99.90;;;;;;5028274;28;20451;-37
2022/10/13 05:08:31;;;;;;;12.57;9.37;;;12.50;99.90;;;;;;5028511;28;20285;-37
2022/10/13 05:11:00;;;;;;;13.60;9.20;;;12.50;99.90;;;;;;5026954;28;20565;-38
2022/10/13 05:13:27;;;;;;;9.93;8.60;;;12.50;99.90;;;;;;5027359;28;20451;-37
2022/10/13 05:15:53;;;;;;;9.67;8.20;;;12.50;99.90;;;;;;5028498;28;20824;-37
2022/10/13 05:18:18;;;;;;;10.53;8.20;;;12.50;99.90;;;;;;5028304;28;20425;-37
2022/10/13 05:20:45;;;;;;;12.20;7.93;;;12.50;99.90;;;;;;5033008;28;20277;-38
2022/10/13 05:23:11;;;;;;;10.70;8.60;;;12.50;99.90;;;;;;5027798;28;20710;-37
2022/10/13 05:25:37;;;;;;;11.13;8.27;;;12.40;99.90;;;;;;5028127;28;20528;-37
2022/10/13 05:28:05;;;;;;;11.90;8.07;;;12.50;99.90;;;;;;5027506;28;20182;-38
2022/10/13 05:30:31;;;;;;;11.80;8.13;;;12.50;99.90;;;;;;5028337;28;20410;-37
2022/10/13 05:32:57;;;;;;;14.60;8.17;;;12.40;99.90;;;;;;5029226;28;20516;-37
2022/10/13 05:35:23;;;;;;;9.00;8.10;;;12.50;99.90;;;;;;5028002;28;20508;-37
2022/10/13 05:37:49;;;;;;;10.33;8.10;;;12.50;99.90;;;;;;5026963;28;20432;-37
2022/10/13 05:40:14;;;;;;;8.50;7.40;;;12.50;99.90;;;;;;5027758;28;20425;-37
2022/10/13 05:42:40;;;;;;;10.23;8.03;;;12.60;99.90;;;;;;5039230;28;20684;-37
2022/10/13 05:45:08;;;;;;;10.60;7.90;;;12.60;99.90;;;;;;5032336;28;20183;-37
2022/10/13 05:47:34;;;;;;;13.23;7.70;;;12.60;99.90;;;;;;5026003;28;20556;-37
2022/10/13 05:50:00;;;;;;;11.50;7.67;;;12.50;99.90;;;;;;5026389;28;20487;-37
2022/10/13 05:52:27;;;;;;;9.90;7.50;;;12.50;99.90;;;;;;5026303;28;20201;-37
2022/10/13 05:55:01;;;;;;;10.67;8.37;;;12.50;99.90;;;;;;5026081;28;20201;-38
2022/10/13 05:57:31;;;;;;;9.13;7.20;;;12.60;99.90;;;;;;5027353;28;20439;-37
2022/10/13 06:00:06;;;;;;;11.17;7.80;;;12.50;99.90;;;;;;5025301;28;20429;-37
2022/10/13 06:02:38;;;;;;;14.40;8.33;;;12.60;99.90;;;;;;5024547;28;20518;-37
2022/10/13 06:05:07;;;;;;;10.23;7.40;;;12.60;99.90;;;;;;5025674;28;20444;-37
2022/10/13 06:07:33;;;;;;;11.33;8.03;;;12.70;99.90;;;;;;5023304;28;20888;-37
2022/10/13 06:10:00;;;;;;;11.27;8.10;;;12.70;99.90;;;;;;5027220;28;20421;-38
2022/10/13 06:12:25;;;;;;;10.50;7.80;;;12.70;99.90;;;;;;5026065;28;20468;-37
2022/10/13 06:14:51;;;;;;;10.70;8.20;;;12.60;99.90;;;;;;5029013;28;20425;-37
2022/10/13 06:17:16;;;;;;;10.80;7.97;;;12.60;99.90;;;;;;5030571;28;20190;-37
2022/10/13 06:19:44;;;;;;;10.27;8.43;;;12.70;99.90;;;;;;5032321;28;20668;-37
2022/10/13 06:22:09;;;;;;;13.70;9.00;;;12.70;99.90;;;;;;5034629;28;20217;-38
2022/10/13 06:24:35;;;;;;;13.83;8.70;;;12.70;99.90;;;;;;5030380;28;20418;-37
2022/10/13 06:27:01;;;;;;;11.20;8.37;;;12.70;99.90;;;;;;5031086;28;20761;-37
2022/10/13 06:29:27;;;;;;;11.97;8.50;;;12.70;99.90;;;;;;5031509;28;20196;-38
2022/10/13 06:31:52;;;;;;;14.37;8.57;;;12.80;99.90;;;;;;5031417;28;20178;-37
2022/10/13 06:34:18;;;;;;;9.73;8.40;;;12.70;99.90;;;;;;5030610;28;20178;-37
2022/10/13 06:36:43;;;;;;;9.77;7.27;;;12.80;99.90;;;;;;5031080;28;20538;-37
2022/10/13 06:39:09;;;;;;;10.57;8.17;;;12.70;99.90;;;;;;5031349;28;20271;-37
2022/10/13 06:41:35;;;;;;;14.60;9.37;;;12.70;99.90;;;;;;5030804;28;20183;-37
2022/10/13 06:44:01;;;;;;;13.03;8.33;;;12.70;99.90;;;;;;5030731;28;20467;-37
2022/10/13 06:46:26;;;;;;;11.40;8.40;;;12.70;99.90;;;;;;5031107;28;20581;-37
2022/10/13 06:48:52;;;;;;;9.83;7.70;;;12.70;99.90;;;;;;5031189;28;20191;-37
2022/10/13 06:51:17;;;;;;;10.70;8.07;;;12.80;99.90;;;;;;5031039;28;20202;-37
2022/10/13 06:53:43;;;;;;;14.10;8.77;;;12.70;99.90;;;;;;5030458;28;20220;-37
2022/10/13 06:56:09;;;;;;;13.43;9.47;;;12.80;99.90;;;;;;5029822;28;20194;-37
2022/10/13 06:58:36;;;;;;;10.33;8.10;;;12.70;99.90;;;;;;5030919;28;20190;-37
2022/10/13 07:01:02;;;;;;;11.70;8.90;;;12.70;99.90;;;;;;5030719;28;20495;-37
2022/10/13 07:03:27;;;;;;;12.63;10.57;;;12.70;99.90;;;;;;5030033;28;20503;-37
2022/10/13 07:05:53;;;;;;;15.80;10.20;;;12.70;99.90;;;;;;5030351;28;20437;-37
2022/10/13 07:08:19;;;;;;;11.97;8.93;;;12.80;99.90;;;;;;5030939;28;20626;-37
2022/10/13 07:10:45;;;;;;;12.50;9.23;;;12.80;99.90;;;;;;5030482;28;20186;-37
2022/10/13 07:13:11;;;;;;;11.23;9.37;;;12.80;99.90;;;;;;5030135;28;20487;-38
2022/10/13 07:15:38;;;;;;;16.07;9.20;;;12.80;99.90;;;;;;5029368;28;20633;-37
2022/10/13 07:18:03;;;;;;;12.63;9.07;;;12.80;99.90;;;;;;5030239;28;20196;-37
2022/10/13 07:20:29;;;;;;;9.80;8.30;;;12.90;99.90;;;;;;5034562;28;20434;-37
2022/10/13 07:22:55;;;;;;;14.17;8.63;;;12.80;99.90;;;;;;5029416;28;20218;-37
2022/10/13 07:25:21;;;;;;;11.63;9.10;;;12.80;99.90;;;;;;5016807;28;20183;-37
2022/10/13 07:27:46;;;;;;;17.37;9.07;;;12.90;99.90;;;;;;5029939;28;20186;-37
2022/10/13 07:30:12;;;;;;;11.97;9.90;;;13.00;99.90;;;;;;5028731;28;21123;-37
2022/10/13 07:32:40;;;;;;;11.30;8.57;;;13.10;99.90;;;;;;5029649;28;20252;-37
2022/10/13 07:35:07;;;;;;;13.73;9.60;;;13.10;99.90;;;;;;5029743;28;20197;-38
2022/10/13 07:37:33;;;;;;;13.33;9.30;;;13.20;99.90;;;;;;5030014;28;20425;-37
2022/10/13 07:39:59;;;;;;;14.30;9.40;;;13.30;99.90;;;;;;5030056;28;20417;-37
2022/10/13 07:42:25;;;;;;;15.23;9.20;;;13.50;99.90;;;;;;5029913;28;20191;-39
2022/10/13 07:44:51;;;;;;;12.57;9.63;;;13.60;99.90;;;;;;5029353;28;20436;-38
2022/10/13 07:47:17;;;;;;;13.93;8.80;;;13.90;99.90;;;;;;5029860;28;20414;-38
2022/10/13 07:49:42;;;;;;;11.80;8.90;;;14.10;99.90;;;;;;5029524;28;20194;-37
2022/10/13 07:52:08;;;;;;;10.33;8.70;;;14.40;99.90;;;;;;5029703;28;20425;-37
2022/10/13 07:54:34;;;;;;;14.13;9.20;;;14.70;99.90;;;;;;5028336;28;20198;-38
2022/10/13 07:56:59;;;;;;;10.30;7.33;;;14.80;99.90;;;;;;5029739;28;20194;-38
2022/10/13 07:59:25;;;;;;;11.33;8.90;;;14.80;99.90;;;;;;5029797;28;20273;-38
2022/10/13 08:01:50;;;;;;;13.40;9.07;;;14.70;99.90;;;;;;5029585;28;20502;-37
2022/10/13 08:04:16;;;;;;;16.90;8.63;;;14.70;99.90;;;;;;5028560;28;20316;-37
2022/10/13 08:06:42;;;;;;;13.37;10.40;;;14.60;99.90;;;;;;5029636;28;20174;-38
2022/10/13 08:09:08;;;;;;;14.23;9.60;;;14.50;99.90;;;;;;5029474;28;20680;-37
2022/10/13 08:11:35;;;;;;;10.33;8.73;;;14.40;99.90;;;;;;5029462;28;20186;-37
2022/10/13 08:14:01;;;;;;;10.30;8.47;;;14.40;99.90;;;;;;5029098;28;20421;-37
2022/10/13 08:16:27;;;;;;;14.67;9.00;;;14.40;99.90;;;;;;5029443;28;20429;-38
2022/10/13 08:18:53;;;;;;;11.23;8.47;;;14.30;99.90;;;;;;5028748;28;20466;-37
2022/10/13 08:21:21;;;;;;;11.87;8.60;;;14.30;99.90;;;;;;5033336;28;20527;-37
2022/10/13 08:23:47;;;;;;;10.23;8.23;;;14.30;99.90;;;;;;5028515;28;20573;-37
2022/10/13 08:26:21;;;;;;;10.47;8.00;;;14.30;99.90;;;;;;5029600;28;20417;-38
2022/10/13 08:28:47;;;;;;;10.07;8.87;;;14.30;99.90;;;;;;5028914;28;20765;-38
2022/10/13 08:31:12;;;;;;;10.83;8.60;;;14.30;99.90;;;;;;5029391;28;20432;-38
2022/10/13 08:33:39;;;;;;;10.70;8.40;;;14.30;99.90;;;;;;5028111;28;20689;-39
2022/10/13 08:36:06;;;;;;;9.60;8.33;;;14.40;99.90;;;;;;5029156;28;20225;-37
2022/10/13 08:38:31;;;;;;;13.40;8.00;;;14.40;99.90;;;;;;5027857;28;20424;-37
2022/10/13 08:40:57;;;;;;;9.80;7.53;;;14.50;99.90;;;;;;5028954;28;20421;-37
2022/10/13 08:43:24;;;;;;;11.13;8.77;;;14.50;99.90;;;;;;5028145;28;20711;-37
2022/10/13 08:45:55;;;;;;;13.97;8.40;;;14.60;99.90;;;;;;5028581;28;20182;-37
2022/10/13 08:48:35;;;;;;;13.97;8.00;;;14.60;99.90;;;;;;5028723;28;20417;-38
2022/10/13 08:51:04;;;;;;;13.00;8.50;;;14.70;99.90;;;;;;5028637;28;20508;-38
2022/10/13 08:53:32;;;;;;;10.10;7.03;;;14.80;99.90;;;;;;5028108;28;20417;-38
2022/10/13 08:56:08;;;;;;;9.00;7.50;;;14.90;99.90;;;;;;5027552;28;20433;-38
2022/10/13 08:58:37;;;;;;;11.17;7.77;;;14.90;99.90;;;;;;5028490;28;20512;-38
2022/10/13 09:01:19;;;;;;;10.60;8.30;;;14.90;99.90;;;;;;5028615;28;20422;-39
2022/10/13 09:04:11;;;;;;;11.47;7.43;;;14.90;99.90;;;;;;5019781;28;20465;-37
2022/10/13 09:06:45;;;;;;;9.83;7.17;;;15.00;99.90;;;;;;5028523;28;20425;-38
2022/10/13 09:09:13;;;;;;;10.10;7.97;;;15.00;99.90;;;;;;5028422;28;20989;-37
2022/10/13 09:11:47;;;;;;;8.67;7.10;;;15.00;99.90;;;;;;5028586;28;21022;-38
2022/10/13 09:14:31;;;;;;;10.07;7.53;;;15.00;99.90;;;;;;5027990;28;21039;-37
2022/10/13 09:17:16;;;;;;;8.50;6.67;;;15.00;99.90;;;;;;5019822;28;20516;-38
2022/10/13 09:19:45;;;;;;;9.53;6.80;;;15.00;99.90;;;;;;5028400;28;20560;-38
2022/10/13 09:22:24;;;;;;;12.37;6.70;;;15.00;99.90;;;;;;5031619;28;20421;-37
2022/10/13 09:25:08;;;;;;;10.40;8.53;;;15.10;99.90;;;;;;5027951;28;20916;-38
2022/10/13 09:27:47;;;;;;;7.90;6.30;;;15.10;99.90;;;;;;5027816;28;20424;-38
2022/10/13 09:30:30;;;;;;;10.17;6.77;;;15.20;99.90;;;;;;5028446;28;20420;-38
2022/10/13 09:33:18;;;;;;;10.87;7.60;;;15.40;99.90;;;;;;5027513;28;20516;-37
2022/10/13 09:35:55;;;;;;;7.60;6.90;;;15.50;99.90;;;;;;5028126;28;20512;-38
2022/10/13 09:38:24;;;;;;;9.67;7.50;;;15.70;99.90;;;;;;5028102;28;20455;-38
2022/10/13 09:41:08;;;;;;;11.53;7.97;;;15.90;99.90;;;;;;5028406;28;20432;-37
2022/10/13 09:43:57;;;;;;;9.37;7.97;;;16.00;99.90;;;;;;5027369;28;20456;-37
2022/10/13 09:46:49;;;;;;;9.73;7.17;;;16.10;99.90;;;;;;5026703;28;20503;-38
2022/10/13 09:49:40;;;;;;;11.30;6.80;;;16.10;99.90;;;;;;5029512;28;20436;-38
2022/10/13 09:52:11;;;;;;;7.43;6.30;;;16.00;99.90;;;;;;5032186;28;20927;-38
2022/10/13 09:54:48;;;;;;;9.60;6.63;;;16.00;99.90;;;;;;5029556;28;20413;-37
2022/10/13 09:57:29;;;;;;;9.20;7.43;;;15.90;99.90;;;;;;5032378;28;20890;-37
2022/10/13 10:00:02;;;;;;;7.50;6.67;;;15.90;99.90;;;;;;5031966;28;20824;-38
2022/10/13 10:02:36;;;;;;;9.83;7.20;;;16.00;99.90;;;;;;5031273;28;20413;-38
2022/10/13 10:05:31;;;;;;;9.40;6.43;;;16.20;99.90;;;;;;5031382;28;20527;-38
2022/10/13 10:08:16;;;;;;;8.03;6.30;;;16.30;99.90;;;;;;5032033;28;20571;-38
2022/10/13 10:10:42;;;;;;;12.10;7.40;;;16.30;99.90;;;;;;5031633;28;20973;-38
2022/10/13 10:13:12;;;;;;;9.87;6.80;;;16.30;99.90;;;;;;5031020;28;20425;-38
2022/10/13 10:15:49;;;;;;;10.80;6.27;;;16.20;99.90;;;;;;5031541;28;20433;-38
2022/10/13 10:18:42;;;;;;;10.40;7.27;;;16.20;99.90;;;;;;5031551;28;20555;-38
2022/10/13 10:21:19;;;;;;;10.00;6.40;;;16.30;99.90;;;;;;5044819;28;20435;-37
2022/10/13 10:23:47;;;;;;;9.87;6.80;;;16.20;99.90;;;;;;5033174;28;20455;-38
2022/10/13 10:26:21;;;;;;;9.73;7.00;;;16.20;99.90;;;;;;5031556;28;20429;-38
2022/10/13 10:29:01;;;;;;;10.87;7.20;;;16.20;99.90;;;;;;5031253;28;20504;-38
2022/10/13 10:31:32;;;;;;;10.57;6.77;;;16.30;99.90;;;;;;5031478;28;20420;-39
2022/10/13 10:34:21;;;;;;;11.43;7.00;;;16.30;99.90;;;;;;5030382;28;20518;-39
2022/10/13 10:37:12;;;;;;;11.43;7.00;;;16.30;99.90;;;;;;5030536;28;20483;-38
2022/10/13 10:39:48;;;;;;;7.60;6.43;;;16.40;99.90;;;;;;5030914;28;20445;-38
2022/10/13 10:42:32;;;;;;;8.87;7.03;;;16.40;99.90;;;;;;5030930;28;20421;-37
2022/10/13 10:45:03;;;;;;;15.93;7.03;;;16.40;99.90;;;;;;5030213;28;20520;-38
2022/10/13 10:47:40;;;;;;;8.47;6.50;;;16.40;99.90;;;;;;5028563;28;20413;-38
2022/10/13 10:50:12;;;;;;;8.80;6.57;;;16.50;99.90;;;;;;5037502;28;20549;-37
2022/10/13 10:52:54;;;;;;;9.07;6.77;;;16.50;99.90;;;;;;5050171;28;20509;-37
2022/10/13 10:55:41;;;;;;;8.43;6.10;;;16.60;99.90;;;;;;5049108;28;21090;-38
2022/10/13 10:58:30;;;;;;;10.53;6.43;;;16.60;99.90;;;;;;5050900;28;20428;-38
2022/10/13 11:01:12;;;;;;;8.70;6.80;;;16.60;99.90;;;;;;5049923;28;20478;-38
2022/10/13 11:03:53;;;;;;;8.33;5.90;;;16.70;99.90;;;;;;5028297;28;20492;-38
2022/10/13 11:06:31;;;;;;;9.00;6.10;;;16.80;99.90;;;;;;5031145;28;20417;-38
2022/10/13 11:08:57;;;;;;;9.77;6.47;;;16.90;99.90;;;;;;5029265;28;20487;-38
2022/10/13 11:11:22;;;;;;;12.70;6.60;;;16.90;99.90;;;;;;5031383;28;20426;-37
2022/10/13 11:14:01;;;;;;;6.77;5.60;;;17.00;99.90;;;;;;5030117;28;20204;-38
2022/10/13 11:16:35;;;;;;;11.23;6.87;;;17.10;99.90;;;;;;5030124;28;20265;-38
2022/10/13 11:19:19;;;;;;;10.10;7.30;;;17.20;99.90;;;;;;5031931;28;20501;-38
2022/10/13 11:21:54;;;;;;;10.10;6.80;;;17.40;99.90;;;;;;5033543;28;20427;-38
2022/10/13 11:24:35;;;;;;;8.40;6.80;;;17.50;99.90;;;;;;5029267;28;20463;-37
2022/10/13 11:27:06;;;;;;;10.30;6.80;;;17.60;99.90;;;;;;5047097;28;20420;-38
2022/10/13 11:29:56;;;;;;;12.07;8.13;;;17.70;99.90;;;;;;5046856;28;20459;-38
2022/10/13 11:35:03;;;;;;;9.97;6.13;;;17.80;99.90;;;;;;5031943;28;20478;-38
2022/10/13 11:37:56;;;;;;;7.17;5.63;;;17.70;99.90;;;;;;5033171;28;20440;-37
2022/10/13 11:40:43;;;;;;;7.00;5.10;;;17.60;99.90;;;;;;5031370;28;20772;-37
2022/10/13 11:43:24;;;;;;;7.33;6.60;;;17.50;99.90;;;;;;5027812;28;20468;-39
2022/10/13 11:46:01;;;;;;;8.27;6.00;;;17.40;99.90;;;;;;5015968;28;20929;-38
2022/10/13 11:48:57;;;;;;;7.67;6.00;;;17.40;99.90;;;;;;5029083;28;20413;-38
2022/10/13 11:51:47;;;;;;;8.60;5.83;;;17.30;99.90;;;;;;5029309;28;20492;-38
2022/10/13 11:54:33;;;;;;;7.73;5.90;;;17.20;99.90;;;;;;5042121;28;20511;-39
2022/10/13 11:56:59;;;;;;;9.10;5.40;;;17.10;99.90;;;;;;5030003;28;20525;-38
2022/10/13 11:59:32;;;;;;;7.20;5.80;;;17.10;99.90;;;;;;5039503;28;21106;-38
2022/10/13 12:02:18;;;;;;;9.17;6.77;;;17.00;99.90;;;;;;5030458;28;20198;-38
2022/10/13 12:04:58;;;;;;;7.57;6.20;;;17.00;99.90;;;;;;5028874;28;20441;-38
2022/10/13 12:07:27;;;;;;;7.50;6.27;;;16.90;99.90;;;;;;5019988;28;20834;-38
2022/10/13 12:09:55;;;;;;;7.00;5.50;;;16.80;99.90;;;;;;5026648;28;20417;-38
2022/10/13 12:12:22;;;;;;;9.10;5.70;;;16.70;99.90;;;;;;5026358;28;20524;-38
2022/10/13 12:14:53;;;;;;;8.90;5.93;;;16.70;99.90;;;;;;5028507;28;20421;-38
2022/10/13 12:17:25;;;;;;;6.67;5.70;;;16.70;99.90;;;;;;5027552;28;20421;-38
2022/10/13 12:19:53;;;;;;;7.87;5.13;;;16.70;99.90;;;;;;5028188;28;20418;-38
2022/10/13 12:22:19;;;;;;;8.30;6.17;;;16.70;99.90;;;;;;5034060;28;20787;-38
2022/10/13 12:24:57;;;;;;;8.27;5.83;;;16.70;99.90;;;;;;5019499;28;20920;-39
2022/10/13 12:27:23;;;;;;;8.50;6.03;;;16.70;99.90;;;;;;5016173;28;20428;-37
2022/10/13 12:29:49;;;;;;;8.37;5.80;;;16.60;99.90;;;;;;5029941;28;20417;-38
2022/10/13 12:32:23;;;;;;;8.53;5.80;;;16.70;99.90;;;;;;5028016;28;20228;-38
2022/10/13 12:34:49;;;;;;;10.13;6.60;;;16.70;99.90;;;;;;5028661;28;20186;-38
2022/10/13 12:37:44;;;;;;;11.17;6.23;;;16.60;99.90;;;;;;5029145;28;20455;-37
2022/10/13 12:40:14;;;;;;;8.07;6.87;;;16.50;99.90;;;;;;5023208;28;20300;-38
2022/10/13 12:42:41;;;;;;;8.57;6.73;;;16.60;99.90;;;;;;5026867;28;20468;-38
2022/10/13 12:45:13;;;;;;;10.40;6.37;;;16.40;99.90;;;;;;5028541;28;20479;-37
2022/10/13 12:47:47;;;;;;;9.63;6.50;;;16.30;99.90;;;;;;5028604;28;20413;-38
2022/10/13 12:50:28;;;;;;;9.13;7.00;;;16.30;99.90;;;;;;5028745;28;20416;-39
2022/10/13 12:53:07;;;;;;;9.37;6.70;;;16.30;99.90;;;;;;5027527;28;20988;-37
2022/10/13 12:55:35;;;;;;;10.23;7.07;;;16.20;99.90;;;;;;5026695;28;20421;-38
2022/10/13 12:58:01;;;;;;;8.77;6.67;;;16.20;99.90;;;;;;5024603;28;20440;-38